createdAt,value
2017-11-16T00:00:11.178Z,42.07
2017-11-16T00:02:37.417Z,40.90
2017-11-16T00:05:03.675Z,38.73
2017-11-16T00:07:29.955Z,39.20
2017-11-16T00:09:56.206Z,40.77
2017-11-16T00:12:22.450Z,38.53
2017-11-16T00:14:48.732Z,43.80
2017-11-16T00:17:14.973Z,40.00
2017-11-16T00:19:41.187Z,42.10
2017-11-16T00:22:07.463Z,40.50
2017-11-16T00:24:33.711Z,37.40
2017-11-16T00:26:59.949Z,42.17
2017-11-16T00:29:26.314Z,44.87
2017-11-16T00:31:52.573Z,41.40
2017-11-16T00:34:18.809Z,44.43
2017-11-16T00:36:45.084Z,43.77
2017-11-16T00:39:11.311Z,41.47
2017-11-16T00:41:37.534Z,45.07
2017-11-16T00:44:03.821Z,42.67
2017-11-16T00:46:30.053Z,42.90
2017-11-16T00:48:56.285Z,44.00
2017-11-16T00:51:22.590Z,40.90
2017-11-16T00:53:48.848Z,38.43
2017-11-16T00:56:15.092Z,41.43
2017-11-16T00:58:41.382Z,40.60
2017-11-16T01:01:07.631Z,42.40
2017-11-16T01:03:33.872Z,38.80
2017-11-16T01:06:00.145Z,41.07
2017-11-16T01:08:26.391Z,44.77
2017-11-16T01:10:52.628Z,39.70
2017-11-16T01:13:18.922Z,43.10
2017-11-16T01:15:45.208Z,46.97
2017-11-16T01:18:11.439Z,40.47
2017-11-16T01:20:37.749Z,41.47
2017-11-16T01:23:03.984Z,42.73
2017-11-16T01:25:30.225Z,40.80
2017-11-16T01:27:56.497Z,41.33
2017-11-16T01:30:22.754Z,43.77
2017-11-16T01:32:48.979Z,38.60
2017-11-16T01:35:15.250Z,43.17
2017-11-16T01:37:41.500Z,41.67
2017-11-16T01:40:07.738Z,39.03
2017-11-16T01:42:34.031Z,40.10
2017-11-16T01:45:00.279Z,40.27
2017-11-16T01:47:26.508Z,39.17
2017-11-16T01:49:52.852Z,38.47
2017-11-16T01:52:19.093Z,42.17
2017-11-16T01:54:45.534Z,37.80
2017-11-16T01:57:11.836Z,43.13
2017-11-16T01:59:38.082Z,38.97
2017-11-16T02:02:04.318Z,41.83
2017-11-16T02:04:30.597Z,42.63
2017-11-16T02:06:56.855Z,39.73
2017-11-16T02:09:23.102Z,39.40
2017-11-16T02:11:49.383Z,38.23
2017-11-16T02:14:15.620Z,39.70
2017-11-16T02:16:41.863Z,39.60
2017-11-16T02:19:08.149Z,37.23
2017-11-16T02:21:34.389Z,39.03
2017-11-16T02:24:00.626Z,38.00
2017-11-16T02:26:26.908Z,38.83
2017-11-16T02:28:53.136Z,39.10
2017-11-16T02:31:19.380Z,40.13
2017-11-16T02:33:45.653Z,36.33
2017-11-16T02:36:11.891Z,39.50
2017-11-16T02:38:38.131Z,40.17
2017-11-16T02:41:04.417Z,39.73
2017-11-16T02:43:30.705Z,37.13
2017-11-16T02:45:56.939Z,38.20
2017-11-16T02:48:23.217Z,38.07
2017-11-16T02:50:49.454Z,40.73
2017-11-16T02:53:15.698Z,43.83
2017-11-16T02:55:41.965Z,35.63
2017-11-16T02:58:08.197Z,39.27
2017-11-16T03:00:34.506Z,38.03
2017-11-16T03:03:00.821Z,38.47
2017-11-16T03:05:27.080Z,34.77
2017-11-16T03:07:53.311Z,35.63
2017-11-16T03:10:19.622Z,40.60
2017-11-16T03:12:45.867Z,36.30
2017-11-16T03:15:12.108Z,36.63
2017-11-16T03:17:38.372Z,35.07
2017-11-16T03:20:04.606Z,34.63
2017-11-16T03:22:30.850Z,38.77
2017-11-16T03:24:57.146Z,35.10
2017-11-16T03:27:23.403Z,40.30
2017-11-16T03:29:49.646Z,38.47
2017-11-16T03:32:15.924Z,37.77
2017-11-16T03:34:42.191Z,41.63
2017-11-16T03:37:08.442Z,40.10
2017-11-16T03:39:34.720Z,42.53
2017-11-16T03:42:00.971Z,37.93
2017-11-16T03:44:27.225Z,40.73
2017-11-16T03:46:53.501Z,44.30
2017-11-16T03:49:19.739Z,41.70
2017-11-16T03:51:45.965Z,41.47
2017-11-16T03:54:12.249Z,48.70
2017-11-16T03:56:38.486Z,43.63
2017-11-16T03:59:04.746Z,37.97
2017-11-16T04:01:31.017Z,40.10
2017-11-16T04:03:57.277Z,38.73
2017-11-16T04:06:23.524Z,39.27
2017-11-16T04:08:49.819Z,39.90
2017-11-16T04:11:16.168Z,39.30
2017-11-16T04:13:42.400Z,37.27
2017-11-16T04:16:08.666Z,38.57
2017-11-16T04:18:34.902Z,39.30
2017-11-16T04:21:01.140Z,40.13
2017-11-16T04:23:27.423Z,35.33
2017-11-16T04:25:53.670Z,38.87
2017-11-16T04:28:19.930Z,35.20
2017-11-16T04:30:46.231Z,34.40
2017-11-16T04:33:12.460Z,35.90
2017-11-16T04:35:38.693Z,35.43
2017-11-16T04:38:04.969Z,38.33
2017-11-16T04:40:31.211Z,36.60
2017-11-16T04:42:57.449Z,38.87
2017-11-16T04:45:23.757Z,38.70
2017-11-16T04:47:50.005Z,42.77
2017-11-16T04:50:16.240Z,35.87
2017-11-16T04:52:42.581Z,34.70
2017-11-16T04:55:08.803Z,35.37
2017-11-16T04:57:35.057Z,33.90
2017-11-16T05:00:01.504Z,38.10
2017-11-16T05:02:27.746Z,33.40
2017-11-16T05:04:53.973Z,35.23
2017-11-16T05:07:20.440Z,35.27
2017-11-16T05:09:46.691Z,37.13
2017-11-16T05:12:12.908Z,35.93
2017-11-16T05:14:39.221Z,35.13
2017-11-16T05:17:05.455Z,33.90
2017-11-16T05:19:31.693Z,36.60
2017-11-16T05:21:58.004Z,36.37
2017-11-16T05:24:24.251Z,36.60
2017-11-16T05:26:50.484Z,36.40
2017-11-16T05:29:16.822Z,37.70
2017-11-16T05:31:43.045Z,35.10
2017-11-16T05:34:09.272Z,30.80
2017-11-16T05:36:35.532Z,32.87
2017-11-16T05:39:01.767Z,34.67
2017-11-16T05:41:27.996Z,32.47
2017-11-16T05:43:54.269Z,34.07
2017-11-16T05:46:20.492Z,28.17
2017-11-16T05:48:46.848Z,30.47
2017-11-16T05:51:13.122Z,29.33
2017-11-16T05:53:39.349Z,29.90
2017-11-16T05:56:05.575Z,29.43
2017-11-16T05:58:31.964Z,28.00
2017-11-16T06:00:58.183Z,24.60
2017-11-16T06:03:24.408Z,25.10
2017-11-16T06:05:50.679Z,27.80
2017-11-16T06:08:16.931Z,26.00
2017-11-16T06:10:43.147Z,26.00
2017-11-16T06:13:09.409Z,27.10
2017-11-16T06:15:35.627Z,27.50
2017-11-16T06:18:01.856Z,25.57
2017-11-16T06:20:28.123Z,27.67
2017-11-16T06:22:54.375Z,25.07
2017-11-16T06:25:20.617Z,31.90
2017-11-16T06:27:46.896Z,30.10
2017-11-16T06:30:13.128Z,29.33
2017-11-16T06:32:39.378Z,29.40
2017-11-16T06:35:05.662Z,28.47
2017-11-16T06:37:31.899Z,28.33
2017-11-16T06:39:58.143Z,31.30
2017-11-16T06:42:24.421Z,38.00
2017-11-16T06:44:50.658Z,78.37
2017-11-16T06:47:16.894Z,27.90
2017-11-16T06:49:43.169Z,24.40
2017-11-16T06:52:09.401Z,20.87
2017-11-16T06:54:35.619Z,19.77
2017-11-16T06:57:01.894Z,20.47
2017-11-16T06:59:28.132Z,23.13
2017-11-16T07:01:54.375Z,18.60
2017-11-16T07:04:20.644Z,18.73
2017-11-16T07:06:46.873Z,19.93
2017-11-16T07:09:13.112Z,20.60
2017-11-16T07:11:39.393Z,19.93
2017-11-16T07:14:05.772Z,18.37
2017-11-16T07:16:32.049Z,16.13
2017-11-16T07:18:58.323Z,14.63
2017-11-16T07:21:24.567Z,16.00
2017-11-16T07:23:50.808Z,15.40
2017-11-16T07:26:17.096Z,12.40
2017-11-16T07:28:43.334Z,13.77
2017-11-16T07:31:09.574Z,12.70
2017-11-16T07:33:35.853Z,13.40
2017-11-16T07:36:02.088Z,14.20
2017-11-16T07:38:28.324Z,12.53
2017-11-16T07:40:54.601Z,11.33
2017-11-16T07:43:20.845Z,10.93
2017-11-16T07:45:47.101Z,13.00
2017-11-16T07:48:13.387Z,9.57
2017-11-16T07:50:39.614Z,10.53
2017-11-16T07:53:05.941Z,10.43
2017-11-16T07:55:32.373Z,11.27
2017-11-16T07:57:58.591Z,10.87
2017-11-16T08:00:24.832Z,10.37
2017-11-16T08:02:51.101Z,10.30
2017-11-16T08:05:17.522Z,12.83
2017-11-16T08:07:43.762Z,11.10
2017-11-16T08:10:10.024Z,11.77
2017-11-16T08:12:36.247Z,10.90
2017-11-16T08:15:02.480Z,10.87
2017-11-16T08:17:28.742Z,9.30
2017-11-16T08:19:54.979Z,10.70
2017-11-16T08:22:21.207Z,8.87
2017-11-16T08:24:47.468Z,7.33
2017-11-16T08:27:13.709Z,7.97
2017-11-16T08:29:39.947Z,6.80
2017-11-16T08:32:06.227Z,6.87
2017-11-16T08:34:32.457Z,7.27
2017-11-16T08:36:58.717Z,7.83
2017-11-16T08:39:24.986Z,7.67
2017-11-16T08:41:51.253Z,8.10
2017-11-16T08:44:17.543Z,7.60
2017-11-16T08:46:43.818Z,7.27
2017-11-16T08:49:10.196Z,7.03
2017-11-16T08:51:36.445Z,6.67
2017-11-16T08:54:02.726Z,8.17
2017-11-16T08:56:28.970Z,7.63
2017-11-16T08:58:55.199Z,8.50
2017-11-16T09:01:21.600Z,9.03
2017-11-16T09:03:47.835Z,9.07
2017-11-16T09:06:14.056Z,8.57
2017-11-16T09:08:40.328Z,8.90
2017-11-16T09:11:06.557Z,9.53
2017-11-16T09:13:32.780Z,7.83
2017-11-16T09:15:59.067Z,7.10
2017-11-16T09:18:25.338Z,6.63
2017-11-16T09:20:51.595Z,9.60
2017-11-16T09:23:17.901Z,6.93
2017-11-16T09:25:44.266Z,5.57
2017-11-16T09:28:10.505Z,6.70
2017-11-16T09:30:36.806Z,7.13
2017-11-16T09:33:03.058Z,7.67
2017-11-16T09:35:29.280Z,6.43
2017-11-16T09:37:55.572Z,8.00
2017-11-16T09:40:21.815Z,7.57
2017-11-16T09:42:48.046Z,6.53
2017-11-16T09:45:14.340Z,8.07
2017-11-16T09:47:40.569Z,7.27
2017-11-16T09:50:06.806Z,6.30
2017-11-16T09:52:33.070Z,6.90
2017-11-16T09:54:59.297Z,6.80
2017-11-16T09:57:25.541Z,7.50
2017-11-16T09:59:51.818Z,7.20
2017-11-16T10:02:18.065Z,7.27
2017-11-16T10:04:44.305Z,5.77
2017-11-16T10:07:10.649Z,6.10
2017-11-16T10:09:36.862Z,8.00
2017-11-16T10:12:03.084Z,6.17
2017-11-16T10:14:29.357Z,7.47
2017-11-16T10:16:55.582Z,6.33
2017-11-16T10:19:21.810Z,6.97
2017-11-16T10:21:48.076Z,7.30
2017-11-16T10:24:14.309Z,7.27
2017-11-16T10:26:40.537Z,9.00
2017-11-16T10:29:06.821Z,6.60
2017-11-16T10:31:33.053Z,6.40
2017-11-16T10:33:59.276Z,6.80
2017-11-16T10:36:25.566Z,7.50
2017-11-16T10:38:51.805Z,7.90
2017-11-16T10:41:18.040Z,6.73
2017-11-16T10:43:44.303Z,5.70
2017-11-16T10:46:10.535Z,6.27
2017-11-16T10:48:36.802Z,6.20
2017-11-16T10:51:03.160Z,5.00
2017-11-16T10:53:29.403Z,5.03
2017-11-16T10:55:55.645Z,5.53
2017-11-16T10:58:21.914Z,6.13
2017-11-16T11:00:48.160Z,6.63
2017-11-16T11:03:14.389Z,3.97
2017-11-16T11:05:40.667Z,5.13
2017-11-16T11:08:06.891Z,6.40
2017-11-16T11:10:33.125Z,5.83
2017-11-16T11:12:59.384Z,5.37
2017-11-16T11:15:25.618Z,7.00
2017-11-16T11:17:51.871Z,4.70
2017-11-16T11:20:18.140Z,5.90
2017-11-16T11:22:44.378Z,5.50
2017-11-16T11:25:10.615Z,5.00
2017-11-16T11:27:36.893Z,6.03
2017-11-16T11:30:03.131Z,5.63
2017-11-16T11:32:29.379Z,6.30
2017-11-16T11:34:55.672Z,4.73
2017-11-16T11:37:21.914Z,5.83
2017-11-16T11:39:48.155Z,6.13
2017-11-16T11:42:14.429Z,5.73
2017-11-16T11:44:40.680Z,5.77
2017-11-16T11:47:06.924Z,5.10
2017-11-16T11:49:33.198Z,5.40
2017-11-16T11:51:59.447Z,4.50
2017-11-16T11:54:25.667Z,6.20
2017-11-16T11:56:51.947Z,6.83
2017-11-16T11:59:18.177Z,6.30
2017-11-16T12:01:44.404Z,6.70
2017-11-16T12:04:10.684Z,6.80
2017-11-16T12:06:37.038Z,7.00
2017-11-16T12:09:03.263Z,6.43
2017-11-16T12:11:29.530Z,6.60
2017-11-16T12:13:55.759Z,5.37
2017-11-16T12:16:22.011Z,6.73
2017-11-16T12:18:48.283Z,6.73
2017-11-16T12:21:14.527Z,7.10
2017-11-16T12:23:40.765Z,7.73
2017-11-16T12:26:07.038Z,8.17
2017-11-16T12:28:33.264Z,6.20
2017-11-16T12:30:59.498Z,7.93
2017-11-16T12:33:25.776Z,9.23
2017-11-16T12:35:52.014Z,7.80
2017-11-16T12:38:18.252Z,8.97
2017-11-16T12:40:44.736Z,9.03
2017-11-16T12:43:10.965Z,7.27
2017-11-16T12:45:37.221Z,7.67
2017-11-16T12:48:03.527Z,8.40
2017-11-16T12:50:29.751Z,8.57
2017-11-16T12:52:55.976Z,7.77
2017-11-16T12:55:22.241Z,9.07
2017-11-16T12:57:48.446Z,8.03
2017-11-16T13:00:14.662Z,9.10
2017-11-16T13:02:40.945Z,8.40
2017-11-16T13:05:07.181Z,9.67
2017-11-16T13:07:33.436Z,9.23
2017-11-16T13:09:59.716Z,8.77
2017-11-16T13:12:25.951Z,8.70
2017-11-16T13:14:52.172Z,9.47
2017-11-16T13:17:18.461Z,7.80
2017-11-16T13:19:44.702Z,8.20
2017-11-16T13:22:10.921Z,10.10
2017-11-16T13:24:37.201Z,8.07
2017-11-16T13:27:03.433Z,9.10
2017-11-16T13:29:29.684Z,8.50
2017-11-16T13:31:55.956Z,8.37
2017-11-16T13:34:22.209Z,8.10
2017-11-16T13:36:48.454Z,9.30
2017-11-16T13:39:14.728Z,7.93
2017-11-16T13:41:40.970Z,8.10
2017-11-16T13:44:07.251Z,9.50
2017-11-16T13:46:33.557Z,8.00
2017-11-16T13:48:59.794Z,8.20
2017-11-16T13:51:26.011Z,9.63
2017-11-16T13:53:52.281Z,9.27
2017-11-16T13:56:18.530Z,9.03
2017-11-16T13:58:44.766Z,9.67
2017-11-16T14:01:11.046Z,8.60
2017-11-16T14:03:37.272Z,9.40
2017-11-16T14:06:03.497Z,8.70
2017-11-16T14:08:29.757Z,8.80
2017-11-16T14:10:55.989Z,9.40
2017-11-16T14:13:22.226Z,9.60
2017-11-16T14:15:48.487Z,8.77
2017-11-16T14:18:14.717Z,9.50
2017-11-16T14:20:40.940Z,9.63
2017-11-16T14:23:07.213Z,9.33
2017-11-16T14:25:33.424Z,10.73
2017-11-16T14:27:59.665Z,11.33
2017-11-16T14:30:25.935Z,13.90
2017-11-16T14:32:52.250Z,10.33
2017-11-16T14:35:18.495Z,10.30
2017-11-16T14:37:44.768Z,11.17
2017-11-16T14:40:11.012Z,10.23
2017-11-16T14:42:37.236Z,10.77
2017-11-16T14:45:03.498Z,11.60
2017-11-16T14:47:29.718Z,11.60
2017-11-16T14:49:55.957Z,10.93
2017-11-16T14:52:22.215Z,9.43
2017-11-16T14:54:48.433Z,14.40
2017-11-16T14:57:14.673Z,12.73
2017-11-16T14:59:40.945Z,11.67
2017-11-16T15:02:07.178Z,8.43
2017-11-16T15:04:33.428Z,11.97
2017-11-16T15:06:59.689Z,10.73
2017-11-16T15:09:25.950Z,11.70
2017-11-16T15:11:52.232Z,11.17
2017-11-16T15:14:18.590Z,11.57
2017-11-16T15:16:44.881Z,12.50
2017-11-16T15:19:11.121Z,12.47
2017-11-16T15:21:37.403Z,11.10
2017-11-16T15:24:03.640Z,13.70
2017-11-16T15:26:29.871Z,11.57
2017-11-16T15:28:56.150Z,12.10
2017-11-16T15:31:22.386Z,12.17
2017-11-16T15:33:48.612Z,12.20
2017-11-16T15:36:14.914Z,12.03
2017-11-16T15:38:41.150Z,14.07
2017-11-16T15:41:07.379Z,13.47
2017-11-16T15:43:33.663Z,15.20
2017-11-16T15:45:59.892Z,15.27
2017-11-16T15:48:26.121Z,16.27
2017-11-16T15:50:52.414Z,16.63
2017-11-16T15:53:18.634Z,17.40
2017-11-16T15:55:44.958Z,17.90
2017-11-16T15:58:11.237Z,18.80
2017-11-16T16:00:37.482Z,19.80
2017-11-16T16:03:03.731Z,20.10
2017-11-16T16:05:30.003Z,20.20
2017-11-16T16:07:56.241Z,20.00
2017-11-16T16:10:22.497Z,20.40
2017-11-16T16:12:48.781Z,21.40
2017-11-16T16:15:15.005Z,23.80
2017-11-16T16:17:41.250Z,19.23
2017-11-16T16:20:07.529Z,20.37
2017-11-16T16:22:33.964Z,18.17
2017-11-16T16:25:00.205Z,20.63
2017-11-16T16:27:26.549Z,19.67
2017-11-16T16:29:52.829Z,17.83
2017-11-16T16:32:19.087Z,17.67
2017-11-16T16:34:45.347Z,18.13
2017-11-16T16:37:11.598Z,18.97
2017-11-16T16:39:37.829Z,15.33
2017-11-16T16:42:04.107Z,16.97
2017-11-16T16:44:30.336Z,16.10
2017-11-16T16:46:56.554Z,15.90
2017-11-16T16:49:22.816Z,14.30
2017-11-16T16:51:49.047Z,17.30
2017-11-16T16:54:15.276Z,15.93
2017-11-16T16:56:41.777Z,13.83
2017-11-16T16:59:08.013Z,14.73
2017-11-16T17:01:34.276Z,14.77
2017-11-16T17:04:00.569Z,13.30
2017-11-16T17:06:26.800Z,12.07
2017-11-16T17:08:53.016Z,12.23
2017-11-16T17:11:19.306Z,11.07
2017-11-16T17:13:45.557Z,12.23
2017-11-16T17:16:11.832Z,12.83
2017-11-16T17:18:38.128Z,12.63
2017-11-16T17:21:04.360Z,12.13
2017-11-16T17:23:30.568Z,10.53
2017-11-16T17:25:56.841Z,10.40
2017-11-16T17:28:23.064Z,9.60
2017-11-16T17:30:49.322Z,10.70
2017-11-16T17:33:15.629Z,10.65
2017-11-16T17:35:41.882Z,11.70
2017-11-16T17:38:08.113Z,9.70
2017-11-16T17:40:34.391Z,10.23
2017-11-16T17:43:00.615Z,8.87
2017-11-16T17:45:26.844Z,10.68
2017-11-16T17:47:53.128Z,11.80
2017-11-16T17:50:19.350Z,9.77
2017-11-16T17:52:45.592Z,10.60
2017-11-16T17:55:11.898Z,9.43
2017-11-16T17:57:38.122Z,9.40
2017-11-16T18:00:04.356Z,9.17
2017-11-16T18:02:30.774Z,9.40
2017-11-16T18:04:57.004Z,9.33
2017-11-16T18:07:23.237Z,7.63
2017-11-16T18:09:49.494Z,7.60
2017-11-16T18:12:15.761Z,7.23
2017-11-16T18:14:41.984Z,7.87
2017-11-16T18:17:08.248Z,6.03
2017-11-16T18:19:34.497Z,5.40
2017-11-16T18:22:00.800Z,5.93
2017-11-16T18:24:27.088Z,6.18
2017-11-16T18:26:53.368Z,5.30
2017-11-16T18:29:19.616Z,5.40
2017-11-16T18:31:45.895Z,5.63
2017-11-16T18:34:12.127Z,5.03
2017-11-16T18:36:38.345Z,5.27
2017-11-16T18:39:04.629Z,4.67
2017-11-16T18:41:30.853Z,5.80
2017-11-16T18:43:57.079Z,5.90
2017-11-16T18:46:23.486Z,4.47
2017-11-16T18:48:49.720Z,5.10
2017-11-16T18:51:15.963Z,6.20
2017-11-16T18:53:42.224Z,5.93
2017-11-16T18:56:08.473Z,5.53
2017-11-16T18:58:34.703Z,5.80
2017-11-16T19:01:00.991Z,6.05
2017-11-16T19:03:27.230Z,5.23
2017-11-16T19:05:53.453Z,4.77
2017-11-16T19:08:19.729Z,5.40
2017-11-16T19:10:45.947Z,4.87
2017-11-16T19:13:12.167Z,5.80
2017-11-16T19:15:38.422Z,5.40
2017-11-16T19:18:04.661Z,5.40
2017-11-16T19:20:30.910Z,4.30
2017-11-16T19:22:57.145Z,5.60
2017-11-16T19:25:23.385Z,5.00
2017-11-16T19:27:49.623Z,4.70
2017-11-16T19:30:15.926Z,5.07
2017-11-16T19:32:42.156Z,5.07
2017-11-16T19:35:08.420Z,6.50
2017-11-16T19:37:34.691Z,4.97
2017-11-16T19:40:00.915Z,7.33
2017-11-16T19:42:27.123Z,4.33
2017-11-16T19:44:53.405Z,4.00
2017-11-16T19:47:19.657Z,4.97
2017-11-16T19:49:45.911Z,4.00
2017-11-16T19:52:12.199Z,4.78
2017-11-16T19:54:38.431Z,4.83
2017-11-16T19:57:04.757Z,4.20
2017-11-16T19:59:31.010Z,4.67
2017-11-16T20:01:57.247Z,4.63
2017-11-16T20:04:23.494Z,4.17
2017-11-16T20:06:49.761Z,5.73
2017-11-16T20:09:15.999Z,4.40
2017-11-16T20:11:42.282Z,4.87
2017-11-16T20:14:08.572Z,4.90
2017-11-16T20:16:34.804Z,4.50
2017-11-16T20:19:01.038Z,4.00
2017-11-16T20:21:27.345Z,5.83
2017-11-16T20:23:53.565Z,4.73
2017-11-16T20:26:19.789Z,5.13
2017-11-16T20:28:46.053Z,5.00
2017-11-16T20:31:12.282Z,4.80
2017-11-16T20:33:38.514Z,4.73
2017-11-16T20:36:04.775Z,5.73
2017-11-16T20:38:30.996Z,5.10
2017-11-16T20:40:57.251Z,5.17
2017-11-16T20:43:23.503Z,3.73
2017-11-16T20:45:49.750Z,4.47
2017-11-16T20:48:15.972Z,5.30
2017-11-16T20:50:42.234Z,6.80
2017-11-16T20:53:08.460Z,6.20
2017-11-16T20:55:34.698Z,5.33
2017-11-16T20:58:00.993Z,6.30
2017-11-16T21:00:27.250Z,5.10
2017-11-16T21:02:53.486Z,6.40
2017-11-16T21:05:19.721Z,7.03
2017-11-16T21:07:45.954Z,5.73
2017-11-16T21:10:12.199Z,4.70
2017-11-16T21:12:38.412Z,5.70
2017-11-16T21:15:04.881Z,5.07
2017-11-16T21:17:31.094Z,5.13
2017-11-16T21:19:57.323Z,4.93
2017-11-16T21:22:23.669Z,5.30
2017-11-16T21:24:49.893Z,5.10
2017-11-16T21:27:16.234Z,5.60
2017-11-16T21:29:42.544Z,4.57
2017-11-16T21:32:08.896Z,5.60
2017-11-16T21:34:35.127Z,5.10
2017-11-16T21:37:01.429Z,5.13
2017-11-16T21:39:27.695Z,5.70
2017-11-16T21:41:53.925Z,7.00
2017-11-16T21:44:20.197Z,5.53
2017-11-16T21:46:46.429Z,6.90
2017-11-16T21:49:12.655Z,7.20
2017-11-16T21:51:38.933Z,11.67
2017-11-16T21:54:05.160Z,9.07
2017-11-16T21:56:31.396Z,7.00
2017-11-16T21:58:57.640Z,6.63
2017-11-16T22:01:23.879Z,6.40
2017-11-16T22:03:50.122Z,6.10
2017-11-16T22:06:16.415Z,6.50
2017-11-16T22:08:42.652Z,6.90
2017-11-16T22:11:08.892Z,6.57
2017-11-16T22:13:35.172Z,7.03
2017-11-16T22:16:01.407Z,6.50
2017-11-16T22:18:27.626Z,6.23
2017-11-16T22:20:53.911Z,5.00
2017-11-16T22:23:20.148Z,6.73
2017-11-16T22:25:46.377Z,5.73
2017-11-16T22:28:12.675Z,6.50
2017-11-16T22:30:38.902Z,5.73
2017-11-16T22:33:05.209Z,6.60
2017-11-16T22:35:31.484Z,6.83
2017-11-16T22:37:57.888Z,6.50
2017-11-16T22:40:24.129Z,6.37
2017-11-16T22:42:50.414Z,6.40
2017-11-16T22:45:16.670Z,5.50
2017-11-16T22:47:42.907Z,6.70
2017-11-16T22:50:09.204Z,7.27
2017-11-16T22:52:35.450Z,8.47
2017-11-16T22:55:01.739Z,6.83
2017-11-16T22:57:28.023Z,6.23
2017-11-16T22:59:54.253Z,7.97
2017-11-16T23:02:20.484Z,8.17
2017-11-16T23:04:46.828Z,7.70
2017-11-16T23:07:13.043Z,6.77
2017-11-16T23:09:39.502Z,7.30
2017-11-16T23:12:05.765Z,7.77
2017-11-16T23:14:32.028Z,10.23
2017-11-16T23:16:58.267Z,8.50
2017-11-16T23:19:24.527Z,8.27
2017-11-16T23:21:50.762Z,9.27
2017-11-16T23:24:17.009Z,9.50
2017-11-16T23:26:43.269Z,8.23
2017-11-16T23:29:09.504Z,9.38
2017-11-16T23:31:35.730Z,10.53
2017-11-16T23:34:01.995Z,9.23
2017-11-16T23:36:28.235Z,9.70
2017-11-16T23:38:54.464Z,10.60
2017-11-16T23:41:20.740Z,9.50
2017-11-16T23:43:46.976Z,9.70
2017-11-16T23:46:13.221Z,10.83
2017-11-16T23:48:39.485Z,10.40
2017-11-16T23:51:05.708Z,10.83
2017-11-16T23:53:31.941Z,10.10
2017-11-16T23:55:58.210Z,9.30
2017-11-16T23:58:24.427Z,10.67
